Meteorología y climatología de Navarra
Datos de la estación - Meteo Navarra

Estación de Doneztebe-Santesteban GN

Altitud 125 m.


Datos desde el 12/09/2019 hasta el 13/09/2019 en horario solar
Los datos son PROVISIONALES

Anterior Página 1 de 1 Siguiente Descargar: Formato para Excel 2000 o superior   Formato csv   Formato para OpenOffice Calc
Fecha Temperatura Humedad relativa Radiación global Insolación Precipitación Vel. viento 10 m Vel. viento 10 m Dir. viento 10 m
ºC % W/m² s l/m² m/s km/h º
12/09/2019 0:00 11.5 98 0.0 0 0.0 0.2 0.8 179
12/09/2019 0:10 11.7 98 0.0 0 0.0 0.2 0.8 122
12/09/2019 0:20 11.8 98 0.0 0 0.0 0.4 1.3 114
12/09/2019 0:30 11.8 98 0.0 0 0.0 0.2 0.9 115
12/09/2019 0:40 11.8 98 0.0 0 0.0 0.4 1.4 122
12/09/2019 0:50 11.9 98 0.0 0 0.0 0.2 0.8 134
12/09/2019 1:00 11.9 98 0.0 0 0.0 0.9 3.1 126
12/09/2019 1:10 12.0 98 0.0 0 0.0 1.3 4.6 128
12/09/2019 1:20 11.9 98 0.0 0 0.0 1.1 3.9 134
12/09/2019 1:30 11.9 98 0.0 0 0.0 0.7 2.6 127
12/09/2019 1:40 11.7 97 0.0 0 0.0 1.1 4.0 120
12/09/2019 1:50 11.6 97 0.0 0 0.0 1.2 4.2 135
12/09/2019 2:00 11.6 97 0.0 0 0.0 0.8 3.0 124
12/09/2019 2:10 11.4 97 0.0 0 0.0 0.6 2.2 112
12/09/2019 2:20 11.3 97 0.0 0 0.0 0.9 3.2 98
12/09/2019 2:30 11.2 97 0.0 0 0.0 1.0 3.7 151
12/09/2019 2:40 11.3 97 0.0 0 0.0 1.0 3.5 139
12/09/2019 2:50 11.4 97 0.0 0 0.0 1.3 4.5 131
12/09/2019 3:00 11.4 96 0.0 0 0.0 0.9 3.2 157
12/09/2019 3:10 11.5 96 0.0 0 0.0 1.0 3.5 136
12/09/2019 3:20 11.5 96 0.0 0 0.0 1.1 4.0 134
12/09/2019 3:30 11.5 95 0.0 0 0.0 1.2 4.4 145
12/09/2019 3:40 11.5 95 0.0 0 0.0 1.3 4.7 131
12/09/2019 3:50 11.4 95 0.0 0 0.0 1.6 5.6 130
12/09/2019 4:00 11.4 95 0.0 0 0.0 1.4 5.0 139
12/09/2019 4:10 11.4 96 0.0 0 0.0 1.5 5.5 124
12/09/2019 4:20 11.4 96 0.0 0 0.0 1.1 3.8 143
12/09/2019 4:30 11.3 97 0.0 0 0.0 1.7 6.1 145
12/09/2019 4:40 11.2 98 0.0 0 0.0 1.2 4.4 141
12/09/2019 4:50 11.3 98 0.0 0 0.0 1.1 4.1 142
12/09/2019 5:00 11.3 97 0.0 0 0.0 1.1 4.0 150
12/09/2019 5:10 11.3 97 0.0 0 0.0 1.2 4.4 144
12/09/2019 5:20 11.2 97 0.0 0 0.0 1.8 6.5 138
12/09/2019 5:30 11.2 96 0.0 0 0.0 1.7 5.9 126
12/09/2019 5:40 11.1 97 0.0 0 0.0 1.3 4.5 136
12/09/2019 5:50 11.2 97 0.0 0 0.0 1.0 3.7 134
12/09/2019 6:00 11.3 97 1.6 0 0.0 1.2 4.4 136
12/09/2019 6:10 11.2 97 27.8 232 0.0 1.4 4.9 132
12/09/2019 6:20 11.3 97 47.8 538 0.0 1.5 5.3 137
12/09/2019 6:30 11.4 97 51.9 0 0.0 1.3 4.6 125
12/09/2019 6:40 11.4 97 56.5 0 0.0 1.2 4.2 131
12/09/2019 6:50 11.5 97 68.5 0 0.0 1.2 4.3 126
12/09/2019 7:00 11.6 96 88.4 0 0.0 1.4 4.9 129
12/09/2019 7:10 11.7 96 88.0 0 0.0 1.4 4.9 136
12/09/2019 7:20 11.6 96 110.9 0 0.0 1.7 5.9 126
12/09/2019 7:30 12.0 97 144.4 0 0.0 1.4 4.9 132
12/09/2019 7:40 12.1 96 158.3 0 0.0 1.3 4.8 128
12/09/2019 7:50 12.3 95 164.1 0 0.0 0.4 1.5 117
12/09/2019 8:00 12.5 94 163.2 0 0.0 0.3 1.1 110
12/09/2019 8:10 12.7 93 188.6 0 0.0 0.4 1.4 122
12/09/2019 8:20 12.7 93 209.1 0 0.0 0.8 3.0 81
12/09/2019 8:30 12.8 93 243.4 152 0.0 0.4 1.3 88
12/09/2019 8:40 13.1 91 359.2 428 0.0 0.1 0.3 316
12/09/2019 8:50 14.0 88 525.7 600 0.0 0.5 1.6 182
12/09/2019 9:00 15.6 81 547.8 600 0.0 0.2 0.6 155
12/09/2019 9:10 15.9 79 555.9 600 0.0 0.1 0.4 126
12/09/2019 9:20 16.5 76 580.5 600 0.0 0.1 0.5 39
12/09/2019 9:30 16.1 79 604.7 600 0.0 0.2 0.6 73
12/09/2019 9:40 16.6 78 627.7 600 0.0 0.0 0.1 64
12/09/2019 9:50 17.3 75 648.9 600 0.0 0.1 0.2 128
12/09/2019 10:00 18.1 71 669.9 600 0.0 0.2 0.5 344
12/09/2019 10:10 19.0 67 688.6 600 0.0 0.1 0.5 299
12/09/2019 10:20 19.7 68 706.9 600 0.0 1.7 6.0 323
12/09/2019 10:30 20.1 65 726.0 600 0.0 1.9 6.7 324
12/09/2019 10:40 20.7 64 740.7 600 0.0 1.9 6.9 322
12/09/2019 10:50 21.2 62 754.4 600 0.0 1.8 6.5 337
12/09/2019 11:00 21.1 62 766.1 600 0.0 2.0 7.1 337
12/09/2019 11:10 21.8 60 777.0 600 0.0 2.3 8.2 330
12/09/2019 11:20 22.1 59 786.6 600 0.0 2.2 7.9 328
12/09/2019 11:30 22.4 58 792.7 600 0.0 2.2 7.8 336
12/09/2019 11:40 22.8 57 798.1 600 0.0 2.5 8.9 327
12/09/2019 11:50 23.0 57 802.0 600 0.0 2.8 10.0 330
12/09/2019 12:00 23.1 57 803.0 600 0.0 2.5 8.9 330
12/09/2019 12:10 23.5 57 803.0 600 0.0 2.9 10.3 331
12/09/2019 12:20 23.5 57 801.0 600 0.0 3.1 11.1 333
12/09/2019 12:30 23.5 56 797.4 600 0.0 2.8 10.1 344
12/09/2019 12:40 23.6 57 792.5 600 0.0 2.8 10.0 339
12/09/2019 12:50 23.8 55 785.6 600 0.0 2.3 8.3 357
12/09/2019 13:00 23.9 57 776.3 600 0.0 2.9 10.3 344
12/09/2019 13:10 24.0 56 766.1 600 0.0 1.7 5.9 358
12/09/2019 13:20 24.1 56 754.8 600 0.0 2.6 9.4 354
12/09/2019 13:30 24.1 55 743.0 600 0.0 2.8 10.2 331
12/09/2019 13:40 24.4 56 729.1 600 0.0 2.7 9.9 330
12/09/2019 13:50 24.7 55 713.5 600 0.0 2.4 8.8 332
12/09/2019 14:00 24.7 56 696.7 600 0.0 2.7 9.8 333
12/09/2019 14:10 24.7 56 677.0 600 0.0 2.5 8.9 338
12/09/2019 14:20 24.8 56 658.7 600 0.0 2.8 10.1 336
12/09/2019 14:30 24.7 56 637.9 600 0.0 3.1 11.0 335
12/09/2019 14:40 24.3 56 615.0 600 0.0 2.8 10.1 354
12/09/2019 14:50 24.4 57 590.6 600 0.0 2.9 10.5 345
12/09/2019 15:00 24.5 56 567.0 600 0.0 3.0 10.7 331
12/09/2019 15:10 24.4 57 541.5 600 0.0 2.7 9.6 330
12/09/2019 15:20 24.5 55 516.6 600 0.0 2.8 10.0 328
12/09/2019 15:30 24.5 56 490.5 600 0.0 3.2 11.5 332
12/09/2019 15:40 24.3 57 460.5 600 0.0 2.2 8.0 332
12/09/2019 15:50 24.7 56 431.5 600 0.0 2.5 8.9 330
12/09/2019 16:00 24.2 57 401.0 600 0.0 2.6 9.4 329
12/09/2019 16:10 24.2 57 370.6 600 0.0 2.3 8.4 329
12/09/2019 16:20 24.1 58 339.5 600 0.0 2.0 7.1 330
12/09/2019 16:30 23.7 59 307.4 600 0.0 2.7 9.6 328
12/09/2019 16:40 23.6 60 275.4 600 0.0 2.4 8.8 321
12/09/2019 16:50 23.2 62 244.1 600 0.0 2.4 8.7 334
12/09/2019 17:00 22.8 64 210.7 600 0.0 1.7 6.1 334
12/09/2019 17:10 22.4 66 177.9 600 0.0 2.2 8.1 330
12/09/2019 17:20 21.8 68 147.0 600 0.0 2.7 9.7 334
12/09/2019 17:30 21.6 68 119.4 600 0.0 3.5 12.7 342
12/09/2019 17:40 21.4 68 69.2 318 0.0 3.1 11.2 347
12/09/2019 17:50 21.0 69 28.1 0 0.0 2.4 8.6 345
12/09/2019 18:00 20.7 69 21.9 0 0.0 2.4 8.8 348
12/09/2019 18:10 20.4 70 7.8 0 0.0 2.4 8.7 349
12/09/2019 18:20 20.1 71 0.0 0 0.0 2.7 9.8 1
12/09/2019 18:30 20.1 70 0.0 0 0.0 2.1 7.5 27
12/09/2019 18:40 19.8 71 0.0 0 0.0 2.2 8.0 16
12/09/2019 18:50 19.7 71 0.0 0 0.0 2.4 8.5 14
12/09/2019 19:00 19.2 74 0.0 0 0.0 0.6 2.2 296
12/09/2019 19:10 18.1 81 0.0 0 0.0 0.9 3.2 285
12/09/2019 19:20 17.5 84 0.0 0 0.0 0.4 1.5 300
12/09/2019 19:30 17.0 86 0.0 0 0.0 0.0 0.0 0
12/09/2019 19:40 16.4 88 0.0 0 0.0 0.0 0.0 130
12/09/2019 19:50 15.9 90 0.0 0 0.0 0.0 0.0 0
12/09/2019 20:00 15.6 92 0.0 0 0.0 0.1 0.2 169
12/09/2019 20:10 15.3 93 0.0 0 0.0 0.0 0.0 0
12/09/2019 20:20 15.0 94 0.0 0 0.0 0.0 0.0 0
12/09/2019 20:30 14.8 95 0.0 0 0.0 0.0 0.1 30
12/09/2019 20:40 14.7 96 0.0 0 0.0 0.0 0.0 0
12/09/2019 20:50 14.5 96 0.0 0 0.0 0.0 0.0 0
12/09/2019 21:00 14.2 96 0.0 0 0.0 0.1 0.3 273
12/09/2019 21:10 14.0 96 0.0 0 0.0 0.0 0.0 0
12/09/2019 21:20 13.8 96 0.0 0 0.0 0.0 0.0 0
12/09/2019 21:30 13.8 96 0.0 0 0.0 0.1 0.4 294
12/09/2019 21:40 13.6 97 0.0 0 0.0 0.1 0.2 301
12/09/2019 21:50 13.5 97 0.0 0 0.0 0.1 0.3 68
12/09/2019 22:00 13.4 97 0.0 0 0.0 0.2 0.8 140
12/09/2019 22:10 13.3 98 0.0 0 0.0 0.3 1.0 144
12/09/2019 22:20 13.1 97 0.0 0 0.0 0.2 0.7 131
12/09/2019 22:30 13.0 97 0.0 0 0.0 0.0 0.1 211
12/09/2019 22:40 13.0 98 0.0 0 0.0 0.0 0.0 0
12/09/2019 22:50 12.6 97 0.0 0 0.0 0.0 0.0 0
12/09/2019 23:00 12.6 98 0.0 0 0.0 0.0 0.1 249
12/09/2019 23:10 12.5 98 0.0 0 0.0 0.0 0.0 0
12/09/2019 23:20 12.4 98 0.0 0 0.0 0.2 0.8 167
12/09/2019 23:30 12.4 98 0.0 0 0.0 0.1 0.3 213
12/09/2019 23:40 12.5 98 0.0 0 0.0 0.3 1.1 126
12/09/2019 23:50 12.6 98 0.0 0 0.0 0.0 0.1 205
Anterior Página 1 de 1 Siguiente

NOTA: Tipo de datos según el color:
   - Valores diarios o 10 minutos correctos
   - Valores diarios calculados a partir de un número de datos 10 minutos menor que 144 y mayor que 120, o de un número de datos semihorarios menor que 48 y mayor que 40 (caso de las estaciones de Riegos de Navarra y del MARM)
   - Valores diez minutos estimados


Contacto        Enlaces        Aviso legal